createdAt,value
2022-08-17T00:01:53.105Z,23.78
2022-08-17T00:04:23.530Z,23.77
2022-08-17T00:06:53.412Z,23.87
2022-08-17T00:09:21.127Z,23.88
2022-08-17T00:12:35.527Z,23.87
2022-08-17T00:14:39.336Z,23.81
2022-08-17T00:17:09.748Z,23.77
2022-08-17T00:19:37.445Z,23.74
2022-08-17T00:22:33.972Z,23.66
2022-08-17T00:25:05.830Z,23.46
2022-08-17T00:27:33.618Z,23.58
2022-08-17T00:30:03.725Z,23.37
2022-08-17T00:33:23.437Z,22.93
2022-08-17T00:35:31.794Z,23.27
2022-08-17T00:38:00.930Z,23.24
2022-08-17T00:40:40.728Z,23.51
2022-08-17T00:43:17.453Z,23.52
2022-08-17T00:45:45.506Z,23.52
2022-08-17T00:48:23.817Z,23.48
2022-08-17T00:50:59.653Z,23.26
2022-08-17T00:53:31.124Z,22.82
2022-08-17T00:55:59.617Z,22.80
2022-08-17T00:58:35.428Z,22.72
2022-08-17T01:01:04.641Z,22.63
2022-08-17T01:03:32.544Z,22.58
2022-08-17T01:06:00.889Z,22.64
2022-08-17T01:08:30.990Z,23.12
2022-08-17T01:11:01.922Z,23.34
2022-08-17T01:13:30.369Z,22.92
2022-08-17T01:16:00.653Z,22.61
2022-08-17T01:18:28.721Z,22.08
2022-08-17T01:20:57.662Z,22.39
2022-08-17T01:23:27.597Z,22.79
2022-08-17T01:25:56.254Z,23.03
2022-08-17T01:28:52.389Z,22.71
2022-08-17T01:31:14.733Z,22.38
2022-08-17T01:33:43.463Z,22.08
2022-08-17T01:36:14.236Z,21.94
2022-08-17T01:38:43.669Z,21.91
2022-08-17T01:41:17.052Z,20.63
2022-08-17T01:43:45.822Z,22.08
2022-08-17T01:46:15.717Z,22.00
2022-08-17T01:48:47.253Z,21.90
2022-08-17T01:51:15.633Z,21.39
2022-08-17T01:53:46.243Z,21.42
2022-08-17T01:56:15.222Z,21.59
2022-08-17T01:58:43.183Z,21.69
2022-08-17T02:01:12.778Z,21.48
2022-08-17T02:03:41.122Z,21.51
2022-08-17T02:06:27.851Z,21.51
2022-08-17T02:09:02.339Z,21.42
2022-08-17T02:11:32.293Z,21.90
2022-08-17T02:14:02.496Z,21.71
2022-08-17T02:16:37.601Z,21.37
2022-08-17T02:19:09.210Z,21.50
2022-08-17T02:21:37.208Z,21.28
2022-08-17T02:24:09.891Z,21.81
2022-08-17T02:26:37.815Z,21.75
2022-08-17T02:29:05.459Z,21.81
2022-08-17T02:31:33.251Z,21.91
2022-08-17T02:34:04.638Z,22.10
2022-08-17T02:36:39.057Z,22.23
2022-08-17T02:39:08.884Z,22.11
2022-08-17T02:41:36.622Z,21.92
2022-08-17T02:44:05.777Z,22.30
2022-08-17T02:46:33.913Z,22.14
2022-08-17T02:49:03.843Z,22.39
2022-08-17T02:51:31.952Z,22.03
2022-08-17T02:54:05.274Z,21.44
2022-08-17T02:56:49.401Z,21.13
2022-08-17T02:59:17.003Z,21.62
2022-08-17T03:01:46.408Z,22.14
2022-08-17T03:04:14.198Z,21.99
2022-08-17T03:06:44.640Z,22.18
2022-08-17T03:09:13.236Z,22.07
2022-08-17T03:11:40.927Z,21.69
2022-08-17T03:14:10.391Z,21.54
2022-08-17T03:16:38.626Z,21.71
2022-08-17T03:19:08.449Z,21.79
2022-08-17T03:21:36.482Z,22.09
2022-08-17T03:24:08.738Z,21.56
2022-08-17T03:26:36.886Z,21.12
2022-08-17T03:29:04.814Z,21.23
2022-08-17T03:31:33.989Z,20.91
2022-08-17T03:34:05.070Z,20.98
2022-08-17T03:36:36.038Z,20.70
2022-08-17T03:39:06.995Z,20.90
2022-08-17T03:41:34.842Z,21.10
2022-08-17T03:44:02.985Z,20.84
2022-08-17T03:46:48.362Z,20.17
2022-08-17T03:49:35.186Z,19.79
2022-08-17T03:52:20.231Z,20.33
2022-08-17T03:55:05.597Z,19.97
2022-08-17T03:57:33.365Z,20.37
2022-08-17T04:00:01.163Z,20.53
2022-08-17T04:02:32.542Z,20.77
2022-08-17T04:05:04.242Z,20.64
2022-08-17T04:07:32.674Z,20.56
2022-08-17T04:10:00.934Z,21.02
2022-08-17T04:12:31.171Z,20.99
2022-08-17T04:14:59.113Z,19.66
2022-08-17T04:17:34.131Z,21.09
2022-08-17T04:20:03.515Z,20.94
2022-08-17T04:22:34.215Z,21.44
2022-08-17T04:25:03.730Z,20.76
2022-08-17T04:27:33.557Z,21.11
2022-08-17T04:30:01.962Z,20.90
2022-08-17T04:33:05.049Z,21.38
2022-08-17T04:35:23.661Z,21.24
2022-08-17T04:37:55.032Z,21.76
2022-08-17T04:40:39.903Z,21.26
2022-08-17T04:43:08.820Z,20.87
2022-08-17T04:45:39.858Z,20.73
2022-08-17T04:48:10.614Z,21.03
2022-08-17T04:50:44.669Z,21.32
2022-08-17T04:53:12.826Z,21.14
2022-08-17T04:55:41.100Z,21.06
2022-08-17T04:58:09.141Z,20.96
2022-08-17T05:00:40.514Z,21.59
2022-08-17T05:03:13.447Z,21.82
2022-08-17T05:05:43.573Z,21.94
2022-08-17T05:08:11.356Z,22.60
2022-08-17T05:10:45.162Z,22.75
2022-08-17T05:13:16.887Z,22.95
2022-08-17T05:15:48.785Z,22.86
2022-08-17T05:18:22.329Z,23.11
2022-08-17T05:20:54.768Z,22.85
2022-08-17T05:23:42.202Z,23.36
2022-08-17T05:26:21.969Z,23.98
2022-08-17T05:28:59.602Z,24.53
2022-08-17T05:31:31.237Z,24.71
2022-08-17T05:33:59.372Z,24.77
2022-08-17T05:36:43.386Z,24.73
2022-08-17T05:39:24.253Z,24.47
2022-08-17T05:41:52.534Z,24.38
2022-08-17T05:44:23.266Z,25.00
2022-08-17T05:46:51.544Z,24.93
2022-08-17T05:49:26.142Z,24.83
2022-08-17T05:52:19.944Z,25.22
2022-08-17T05:54:53.410Z,25.67
2022-08-17T05:57:32.721Z,25.91
2022-08-17T06:00:03.373Z,25.41
2022-08-17T06:02:37.856Z,25.82
2022-08-17T06:05:12.561Z,25.55
2022-08-17T06:07:42.922Z,25.17
2022-08-17T06:10:14.710Z,25.37
2022-08-17T06:12:58.744Z,25.04
2022-08-17T06:15:28.541Z,25.05
2022-08-17T06:17:58.666Z,25.49
2022-08-17T06:20:27.991Z,25.37
2022-08-17T06:22:57.583Z,25.98
2022-08-17T06:25:32.273Z,25.95
2022-08-17T06:28:01.106Z,25.90
2022-08-17T06:30:57.360Z,25.85
2022-08-17T06:33:21.318Z,25.82
2022-08-17T06:35:51.323Z,26.30
2022-08-17T06:38:37.782Z,26.48
2022-08-17T06:41:12.888Z,26.51
2022-08-17T06:43:48.195Z,26.61
2022-08-17T06:46:19.902Z,26.85
2022-08-17T06:48:48.519Z,26.79
2022-08-17T06:51:18.053Z,26.82
2022-08-17T06:53:47.545Z,26.47
2022-08-17T06:56:20.439Z,26.38
2022-08-17T06:58:50.078Z,26.28
2022-08-17T07:01:20.151Z,26.25
2022-08-17T07:03:55.309Z,26.55
2022-08-17T07:06:24.632Z,26.20
2022-08-17T07:08:54.198Z,26.03
2022-08-17T07:11:29.016Z,26.00
2022-08-17T07:14:02.135Z,25.97
2022-08-17T07:16:31.766Z,25.81
2022-08-17T07:19:00.042Z,25.92
2022-08-17T07:21:32.118Z,26.14
2022-08-17T07:24:03.071Z,26.16
2022-08-17T07:26:33.654Z,26.14
2022-08-17T07:29:01.750Z,26.11
2022-08-17T07:31:31.628Z,26.00
2022-08-17T07:34:00.852Z,26.53
2022-08-17T07:36:33.842Z,26.94
2022-08-17T07:39:02.662Z,27.23
2022-08-17T07:41:57.646Z,27.51
2022-08-17T07:44:21.121Z,27.61
2022-08-17T07:47:07.569Z,27.70
2022-08-17T07:49:37.270Z,27.60
2022-08-17T07:52:48.128Z,27.62
2022-08-17T07:54:56.815Z,27.89
2022-08-17T07:57:36.856Z,27.94
2022-08-17T08:00:16.849Z,28.02
2022-08-17T08:02:49.135Z,27.92
2022-08-17T08:05:30.654Z,27.64
2022-08-17T08:08:22.495Z,27.63
2022-08-17T08:10:58.798Z,27.41
2022-08-17T08:13:28.014Z,27.65
2022-08-17T08:16:16.710Z,27.89
2022-08-17T08:18:56.067Z,27.09
2022-08-17T08:21:30.117Z,26.60
2022-08-17T08:24:02.357Z,26.41
2022-08-17T08:26:32.293Z,26.34
2022-08-17T08:29:03.711Z,26.51
2022-08-17T08:31:40.167Z,26.27
2022-08-17T08:34:58.679Z,25.93
2022-08-17T08:37:16.328Z,25.65
2022-08-17T08:39:49.125Z,26.24
2022-08-17T08:42:19.400Z,26.25
2022-08-17T08:45:00.922Z,26.54
2022-08-17T08:47:43.786Z,25.81
2022-08-17T08:50:38.171Z,26.48
2022-08-17T08:53:09.869Z,27.00
2022-08-17T08:55:43.968Z,27.31
2022-08-17T08:58:31.854Z,27.18
2022-08-17T09:01:16.761Z,26.66
2022-08-17T09:03:54.845Z,26.20
2022-08-17T09:06:39.284Z,26.23
2022-08-17T09:09:22.639Z,25.61
2022-08-17T09:12:02.045Z,25.55
2022-08-17T09:14:45.048Z,25.75
2022-08-17T09:17:17.147Z,26.08
2022-08-17T09:19:49.795Z,25.13
2022-08-17T09:22:22.204Z,26.07
2022-08-17T09:24:56.034Z,25.27
2022-08-17T09:27:26.388Z,26.37
2022-08-17T09:29:57.819Z,25.84
2022-08-17T09:32:27.903Z,25.75
2022-08-17T09:35:02.130Z,25.61
2022-08-17T09:37:32.454Z,25.67
2022-08-17T09:40:05.608Z,25.52
2022-08-17T09:42:34.546Z,25.04
2022-08-17T09:45:09.457Z,25.19
2022-08-17T09:47:45.619Z,24.93
2022-08-17T09:50:17.824Z,25.38
2022-08-17T09:53:05.490Z,25.29
2022-08-17T09:55:40.015Z,25.69
2022-08-17T09:58:09.486Z,25.16
2022-08-17T10:00:39.166Z,25.84
2022-08-17T10:03:16.408Z,24.70
2022-08-17T10:05:49.778Z,24.41
2022-08-17T10:08:25.701Z,24.44
2022-08-17T10:10:58.923Z,25.03
2022-08-17T10:13:32.681Z,24.92
2022-08-17T10:16:05.425Z,24.77
2022-08-17T10:18:38.177Z,24.78
2022-08-17T10:21:27.141Z,24.47
2022-08-17T10:24:13.951Z,24.89
2022-08-17T10:26:56.614Z,24.72
2022-08-17T10:29:28.957Z,23.78
2022-08-17T10:31:59.192Z,24.02
2022-08-17T10:34:38.803Z,24.04
2022-08-17T10:37:15.838Z,23.85
2022-08-17T10:39:52.752Z,23.61
2022-08-17T10:42:32.432Z,23.86
2022-08-17T10:45:05.073Z,24.08
2022-08-17T10:47:59.089Z,24.87
2022-08-17T10:50:59.671Z,25.19
2022-08-17T10:53:46.996Z,25.36
2022-08-17T10:56:23.541Z,25.16
2022-08-17T10:58:55.120Z,24.72
2022-08-17T11:01:24.175Z,24.87
2022-08-17T11:03:56.761Z,23.86
2022-08-17T11:06:27.225Z,23.17
2022-08-17T11:09:05.206Z,22.92
2022-08-17T11:11:44.036Z,22.94
2022-08-17T11:14:17.253Z,23.15
2022-08-17T11:16:50.092Z,23.22
2022-08-17T11:19:22.439Z,24.02
2022-08-17T11:21:57.918Z,24.40
2022-08-17T11:24:30.709Z,24.31
2022-08-17T11:27:12.287Z,24.73
2022-08-17T11:29:52.928Z,25.50
2022-08-17T11:32:33.556Z,25.51
2022-08-17T11:35:13.500Z,25.92
2022-08-17T11:37:43.074Z,25.85
2022-08-17T11:40:14.643Z,26.02
2022-08-17T11:43:08.822Z,25.83
2022-08-17T11:45:46.185Z,25.93
2022-08-17T11:48:33.267Z,25.65
2022-08-17T11:51:19.397Z,25.34
2022-08-17T11:54:21.377Z,26.01
2022-08-17T11:56:46.908Z,25.86
2022-08-17T11:59:35.603Z,25.64
2022-08-17T12:02:06.693Z,25.97
2022-08-17T12:04:35.866Z,26.41
2022-08-17T12:07:08.376Z,26.51
2022-08-17T12:09:40.833Z,26.77
2022-08-17T12:12:14.305Z,26.99
2022-08-17T12:15:08.854Z,26.96
2022-08-17T12:17:40.814Z,27.35
2022-08-17T12:20:11.099Z,26.88
2022-08-17T12:22:42.244Z,26.37
2022-08-17T12:25:11.464Z,25.55
2022-08-17T12:27:52.986Z,25.55
2022-08-17T12:30:28.133Z,25.44
2022-08-17T12:32:57.906Z,25.05
2022-08-17T12:35:29.661Z,24.97
2022-08-17T12:37:59.789Z,24.98
2022-08-17T12:40:32.154Z,25.18
2022-08-17T12:43:00.829Z,25.07
2022-08-17T12:45:33.420Z,23.74
2022-08-17T12:48:07.872Z,25.01
2022-08-17T12:50:37.143Z,25.27
2022-08-17T12:53:14.087Z,25.36
2022-08-17T12:55:43.288Z,25.89
2022-08-17T12:58:14.510Z,26.29
2022-08-17T13:00:47.464Z,26.39
2022-08-17T13:03:19.407Z,26.53
2022-08-17T13:05:55.728Z,26.95
2022-08-17T13:08:24.743Z,27.77
2022-08-17T13:10:55.716Z,28.72
2022-08-17T13:13:28.075Z,29.71
2022-08-17T13:15:56.750Z,30.08
2022-08-17T13:18:40.187Z,30.07
2022-08-17T13:21:10.775Z,29.71
2022-08-17T13:23:39.192Z,30.26
2022-08-17T13:26:19.323Z,29.62
2022-08-17T13:28:48.512Z,30.36
2022-08-17T13:31:24.101Z,30.29
2022-08-17T13:33:53.168Z,30.83
2022-08-17T13:36:32.060Z,30.74
2022-08-17T13:39:09.385Z,29.89
2022-08-17T13:41:38.465Z,29.92
2022-08-17T13:44:21.063Z,29.75
2022-08-17T13:46:52.510Z,30.32
2022-08-17T13:49:41.910Z,31.30
2022-08-17T13:52:20.909Z,32.15
2022-08-17T13:54:55.679Z,31.58
2022-08-17T13:57:25.787Z,31.68
2022-08-17T13:59:55.930Z,30.62
2022-08-17T14:02:27.595Z,30.38
2022-08-17T14:05:00.748Z,30.87
2022-08-17T14:07:30.672Z,31.69
2022-08-17T14:10:03.445Z,31.93
2022-08-17T14:12:33.768Z,31.85
2022-08-17T14:15:01.626Z,32.02
2022-08-17T14:17:34.974Z,31.39
2022-08-17T14:20:10.884Z,31.85
2022-08-17T14:22:39.532Z,32.40
2022-08-17T14:25:10.272Z,32.48
2022-08-17T14:27:52.351Z,32.65
2022-08-17T14:30:21.589Z,32.29
2022-08-17T14:32:52.989Z,32.37
2022-08-17T14:35:24.485Z,32.13
2022-08-17T14:37:52.606Z,32.09
2022-08-17T14:40:24.646Z,31.55
2022-08-17T14:42:53.933Z,31.25
2022-08-17T14:45:29.980Z,31.46
2022-08-17T14:48:03.704Z,31.39
2022-08-17T14:50:35.283Z,31.35
2022-08-17T14:53:04.490Z,31.72
2022-08-17T14:55:32.591Z,31.43
2022-08-17T14:58:00.568Z,31.28
2022-08-17T15:00:28.686Z,31.59
2022-08-17T15:02:58.078Z,31.06
2022-08-17T15:05:31.957Z,31.04
2022-08-17T15:08:01.297Z,30.88
2022-08-17T15:10:31.600Z,31.09
2022-08-17T15:13:00.255Z,30.89
2022-08-17T15:15:28.355Z,30.65
2022-08-17T15:17:56.812Z,30.43
2022-08-17T15:20:27.298Z,30.32
2022-08-17T15:22:57.277Z,30.25
2022-08-17T15:25:27.872Z,30.40
2022-08-17T15:27:58.656Z,30.41
2022-08-17T15:30:27.096Z,30.48
2022-08-17T15:32:55.545Z,30.36
2022-08-17T15:35:28.946Z,30.43
2022-08-17T15:38:00.003Z,30.32
2022-08-17T15:40:36.757Z,30.09
2022-08-17T15:43:05.898Z,29.93
2022-08-17T15:45:33.583Z,29.79
2022-08-17T15:48:01.307Z,29.55
2022-08-17T15:50:32.044Z,29.37
2022-08-17T15:53:00.419Z,29.35
2022-08-17T15:55:28.812Z,29.24
2022-08-17T15:57:57.841Z,29.11
2022-08-17T16:00:28.125Z,29.08
2022-08-17T16:03:46.252Z,29.02
2022-08-17T16:05:44.063Z,29.09
2022-08-17T16:08:18.500Z,28.96
2022-08-17T16:10:48.548Z,28.76
2022-08-17T16:13:18.207Z,28.67
2022-08-17T16:15:49.718Z,28.67
2022-08-17T16:18:24.803Z,28.56
2022-08-17T16:20:53.290Z,28.48
2022-08-17T16:23:27.519Z,28.46
2022-08-17T16:25:55.326Z,28.54
2022-08-17T16:28:35.730Z,28.59
2022-08-17T16:31:04.370Z,28.70
2022-08-17T16:33:32.620Z,28.55
2022-08-17T16:36:01.051Z,28.50
2022-08-17T16:38:28.691Z,28.58
2022-08-17T16:40:58.725Z,28.69
2022-08-17T16:43:31.282Z,28.71
2022-08-17T16:46:00.778Z,28.61
2022-08-17T16:48:32.900Z,28.58
2022-08-17T16:51:04.316Z,28.57
2022-08-17T16:53:32.556Z,28.60
2022-08-17T16:56:00.229Z,28.74
2022-08-17T16:58:32.100Z,28.77
2022-08-17T17:01:02.522Z,28.72
2022-08-17T17:03:30.826Z,28.60
2022-08-17T17:06:00.553Z,28.41
2022-08-17T17:08:33.274Z,28.21
2022-08-17T17:11:03.958Z,28.21
2022-08-17T17:13:38.970Z,28.28
2022-08-17T17:16:14.243Z,28.35
2022-08-17T17:18:42.690Z,28.44
2022-08-17T17:21:11.771Z,28.44
2022-08-17T17:23:42.929Z,28.42
2022-08-17T17:26:21.939Z,28.24
2022-08-17T17:28:56.332Z,28.14
2022-08-17T17:31:24.648Z,28.15
2022-08-17T17:33:53.510Z,28.00
2022-08-17T17:36:23.210Z,27.97
2022-08-17T17:38:51.548Z,27.96
2022-08-17T17:41:25.974Z,28.00
2022-08-17T17:43:57.985Z,27.85
2022-08-17T17:46:31.369Z,27.85
2022-08-17T17:48:59.213Z,27.95
2022-08-17T17:52:09.605Z,27.93
2022-08-17T17:54:25.293Z,27.68
2022-08-17T17:56:55.668Z,27.48
2022-08-17T17:59:26.662Z,27.30
2022-08-17T18:01:55.436Z,26.00
2022-08-17T18:04:27.745Z,27.10
2022-08-17T18:06:59.347Z,27.28
2022-08-17T18:09:33.749Z,27.42
2022-08-17T18:12:09.412Z,27.40
2022-08-17T18:14:43.733Z,27.37
2022-08-17T18:17:11.998Z,27.57
2022-08-17T18:19:40.086Z,27.47
2022-08-17T18:22:14.512Z,27.37
2022-08-17T18:24:43.781Z,27.30
2022-08-17T18:27:23.250Z,27.05
2022-08-17T18:29:53.320Z,27.05
2022-08-17T18:32:26.152Z,27.19
2022-08-17T18:34:55.110Z,27.16
2022-08-17T18:37:36.512Z,27.07
2022-08-17T18:40:23.437Z,27.16
2022-08-17T18:42:57.536Z,27.29
2022-08-17T18:45:33.465Z,27.22
2022-08-17T18:48:03.940Z,27.22
2022-08-17T18:50:36.290Z,27.29
2022-08-17T18:53:21.414Z,27.27
2022-08-17T18:55:57.113Z,27.20
2022-08-17T18:58:27.879Z,26.80
2022-08-17T19:00:56.910Z,26.70
2022-08-17T19:03:25.740Z,26.47
2022-08-17T19:05:56.408Z,26.69
2022-08-17T19:08:25.469Z,26.42
2022-08-17T19:10:57.323Z,26.17
2022-08-17T19:13:30.914Z,26.64
2022-08-17T19:16:07.793Z,26.58
2022-08-17T19:18:46.699Z,26.79
2022-08-17T19:21:16.407Z,26.57
2022-08-17T19:23:53.337Z,26.28
2022-08-17T19:26:53.498Z,25.97
2022-08-17T19:29:12.990Z,26.26
2022-08-17T19:31:47.569Z,26.58
2022-08-17T19:34:30.167Z,26.79
2022-08-17T19:37:03.529Z,26.69
2022-08-17T19:39:38.291Z,26.43
2022-08-17T19:42:08.904Z,26.00
2022-08-17T19:44:45.815Z,25.70
2022-08-17T19:47:30.545Z,26.00
2022-08-17T19:50:04.993Z,25.12
2022-08-17T19:52:41.919Z,25.14
2022-08-17T19:55:11.219Z,25.18
2022-08-17T19:57:42.290Z,25.71
2022-08-17T20:00:11.932Z,25.94
2022-08-17T20:02:43.214Z,25.83
2022-08-17T20:05:15.681Z,25.87
2022-08-17T20:07:44.558Z,25.65
2022-08-17T20:10:14.640Z,25.09
2022-08-17T20:12:46.029Z,25.63
2022-08-17T20:15:18.087Z,25.37
2022-08-17T20:17:50.504Z,25.30
2022-08-17T20:20:21.885Z,25.25
2022-08-17T20:22:54.394Z,23.94
2022-08-17T20:25:30.522Z,25.05
2022-08-17T20:28:03.833Z,25.28
2022-08-17T20:30:37.469Z,25.23
2022-08-17T20:33:13.115Z,25.14
2022-08-17T20:35:42.850Z,24.98
2022-08-17T20:38:12.233Z,25.14
2022-08-17T20:40:40.584Z,25.08
2022-08-17T20:43:35.525Z,25.57
2022-08-17T20:46:08.192Z,25.56
2022-08-17T20:48:41.116Z,24.96
2022-08-17T20:51:20.810Z,25.06
2022-08-17T20:54:00.656Z,25.06
2022-08-17T20:57:01.526Z,25.02
2022-08-17T20:59:52.499Z,25.12
2022-08-17T21:02:21.208Z,25.24
2022-08-17T21:05:00.763Z,25.34
2022-08-17T21:07:30.139Z,25.35
2022-08-17T21:10:14.809Z,25.31
2022-08-17T21:12:49.080Z,25.70
2022-08-17T21:15:28.596Z,25.69
2022-08-17T21:17:59.194Z,25.71
2022-08-17T21:20:32.189Z,25.67
2022-08-17T21:23:30.393Z,25.58
2022-08-17T21:26:08.679Z,25.53
2022-08-17T21:29:00.772Z,25.39
2022-08-17T21:31:34.210Z,25.50
2022-08-17T21:34:22.392Z,25.71
2022-08-17T21:36:51.601Z,25.76
2022-08-17T21:39:32.480Z,25.75
2022-08-17T21:42:01.367Z,25.82
2022-08-17T21:44:32.051Z,25.81
2022-08-17T21:47:13.100Z,25.82
2022-08-17T21:49:40.862Z,25.83
2022-08-17T21:52:13.040Z,24.38
2022-08-17T21:54:42.741Z,25.76
2022-08-17T21:57:16.339Z,25.24
2022-08-17T21:59:46.773Z,24.25
2022-08-17T22:02:18.427Z,23.81
2022-08-17T22:04:47.538Z,23.62
2022-08-17T22:07:16.702Z,23.91
2022-08-17T22:09:47.648Z,23.68
2022-08-17T22:12:17.027Z,23.49
2022-08-17T22:14:52.821Z,23.31
2022-08-17T22:17:23.265Z,23.26
2022-08-17T22:19:51.652Z,23.28
2022-08-17T22:22:26.855Z,23.00
2022-08-17T22:24:57.511Z,22.42
2022-08-17T22:27:40.308Z,22.28
2022-08-17T22:30:17.287Z,21.87
2022-08-17T22:32:47.041Z,21.84
2022-08-17T22:35:32.614Z,21.57
2022-08-17T22:38:15.095Z,21.38
2022-08-17T22:40:44.623Z,21.44
2022-08-17T22:43:12.620Z,21.33
2022-08-17T22:45:51.475Z,21.10
2022-08-17T22:48:22.426Z,20.98
2022-08-17T22:51:12.759Z,20.85
2022-08-17T22:54:03.808Z,20.91
2022-08-17T22:56:50.622Z,21.02
2022-08-17T22:59:34.134Z,21.03
2022-08-17T23:02:16.064Z,20.95
2022-08-17T23:04:44.861Z,20.98
2022-08-17T23:07:12.619Z,21.30
2022-08-17T23:09:40.514Z,21.36
2022-08-17T23:12:15.871Z,21.51
2022-08-17T23:14:46.362Z,21.29
2022-08-17T23:17:16.835Z,21.85
2022-08-17T23:19:45.522Z,21.54
2022-08-17T23:22:13.169Z,22.01
2022-08-17T23:24:43.451Z,22.36
2022-08-17T23:27:14.184Z,20.88
2022-08-17T23:29:42.219Z,22.15
2022-08-17T23:32:11.182Z,22.40
2022-08-17T23:34:39.604Z,22.76
2022-08-17T23:37:07.642Z,22.41
2022-08-17T23:39:36.186Z,22.71
2022-08-17T23:42:05.588Z,22.13
2022-08-17T23:44:35.364Z,22.34
2022-08-17T23:47:04.675Z,22.05
2022-08-17T23:49:32.506Z,21.86
2022-08-17T23:52:04.237Z,21.91
2022-08-17T23:54:34.183Z,21.56
2022-08-17T23:57:01.932Z,21.66
2022-08-17T23:59:30.077Z,21.59
